createdAt,value
2023-04-20T00:00:18.947Z,100868.37
2023-04-20T00:03:08.300Z,100868.88
2023-04-20T00:05:37.814Z,100872.84
2023-04-20T00:08:06.337Z,100872.11
2023-04-20T00:10:34.738Z,100870.94
2023-04-20T00:13:03.084Z,100862.92
2023-04-20T00:15:31.319Z,100869.73
2023-04-20T00:17:59.598Z,100869.95
2023-04-20T00:20:28.923Z,100877.61
2023-04-20T00:22:57.159Z,100884.23
2023-04-20T00:25:25.379Z,100871.58
2023-04-20T00:27:53.778Z,100876.17
2023-04-20T00:30:22.286Z,100880.35
2023-04-20T00:32:50.982Z,100879.10
2023-04-20T00:35:19.521Z,100876.92
2023-04-20T00:37:47.923Z,100866.95
2023-04-20T00:40:16.227Z,100870.06
2023-04-20T00:42:44.493Z,100874.25
2023-04-20T00:45:12.761Z,100876.53
2023-04-20T00:47:41.346Z,100876.02
2023-04-20T00:50:10.946Z,100865.39
2023-04-20T00:52:41.040Z,100869.05
2023-04-20T00:55:09.888Z,100865.49
2023-04-20T00:57:38.583Z,100865.61
2023-04-20T01:00:07.636Z,100864.80
2023-04-20T01:02:36.212Z,100858.55
2023-04-20T01:05:04.875Z,100862.58
2023-04-20T01:07:33.137Z,100859.38
2023-04-20T01:10:06.646Z,100851.77
2023-04-20T01:12:37.649Z,100851.17
2023-04-20T01:15:06.847Z,100853.42
2023-04-20T01:17:40.446Z,100849.81
2023-04-20T01:20:12.700Z,100847.61
2023-04-20T01:22:48.776Z,100845.00
2023-04-20T01:25:17.971Z,100844.40
2023-04-20T01:27:46.336Z,100845.55
2023-04-20T01:30:14.919Z,100843.83
2023-04-20T01:32:43.984Z,100842.05
2023-04-20T01:35:12.317Z,100840.48
2023-04-20T01:37:41.056Z,100838.88
2023-04-20T01:40:11.104Z,100834.94
2023-04-20T01:42:39.751Z,100836.26
2023-04-20T01:45:08.712Z,100835.35
2023-04-20T01:47:37.461Z,100837.14
2023-04-20T01:50:06.561Z,100836.52
2023-04-20T01:52:34.813Z,100837.98
2023-04-20T01:55:03.147Z,100841.38
2023-04-20T01:57:31.396Z,100834.67
2023-04-20T01:59:59.703Z,100833.90
2023-04-20T02:02:28.249Z,100835.61
2023-04-20T02:04:56.646Z,100831.71
2023-04-20T02:07:24.816Z,100838.05
2023-04-20T02:09:53.138Z,100836.71
2023-04-20T02:12:21.423Z,100835.94
2023-04-20T02:14:49.666Z,100839.26
2023-04-20T02:17:18.465Z,100841.98
2023-04-20T02:19:47.205Z,100840.00
2023-04-20T02:22:15.648Z,100842.71
2023-04-20T02:24:44.465Z,100839.36
2023-04-20T02:27:12.706Z,100835.79
2023-04-20T02:29:41.663Z,100841.21
2023-04-20T02:32:09.963Z,100839.31
2023-04-20T02:34:38.296Z,100845.72
2023-04-20T02:37:06.530Z,100845.52
2023-04-20T02:39:35.161Z,100840.83
2023-04-20T02:42:03.488Z,100848.21
2023-04-20T02:44:31.766Z,100853.76
2023-04-20T02:47:00.087Z,100852.86
2023-04-20T02:49:28.450Z,100846.35
2023-04-20T02:51:56.663Z,100846.65
2023-04-20T02:54:25.013Z,100845.70
2023-04-20T02:56:53.748Z,100838.67
2023-04-20T02:59:22.081Z,100834.64
2023-04-20T03:01:50.514Z,100835.74
2023-04-20T03:04:19.640Z,100834.41
2023-04-20T03:06:50.475Z,100837.78
2023-04-20T03:09:19.097Z,100839.83
2023-04-20T03:11:48.937Z,100846.55
2023-04-20T03:14:17.774Z,100847.87
2023-04-20T03:16:46.536Z,100851.42
2023-04-20T03:19:14.734Z,100849.06
2023-04-20T03:21:43.293Z,100844.64
2023-04-20T03:24:11.622Z,100847.20
2023-04-20T03:26:39.864Z,100849.95
2023-04-20T03:29:08.473Z,100852.38
2023-04-20T03:31:36.838Z,100857.53
2023-04-20T03:34:05.102Z,100856.79
2023-04-20T03:36:34.246Z,100862.63
2023-04-20T03:39:02.647Z,100862.27
2023-04-20T03:41:31.584Z,100859.14
2023-04-20T03:44:00.178Z,100864.25
2023-04-20T03:46:28.823Z,100868.47
2023-04-20T03:48:57.093Z,100875.07
2023-04-20T03:51:25.496Z,100878.13
2023-04-20T03:53:53.834Z,100871.22
2023-04-20T03:56:22.116Z,100872.27
2023-04-20T03:58:50.355Z,100875.45
2023-04-20T04:01:18.723Z,100876.40
2023-04-20T04:03:47.245Z,100879.25
2023-04-20T04:06:15.912Z,100876.86
2023-04-20T04:08:44.281Z,100875.52
2023-04-20T04:11:12.471Z,100875.01
2023-04-20T04:13:40.817Z,100876.24
2023-04-20T04:16:09.200Z,100882.87
2023-04-20T04:18:38.197Z,100885.73
2023-04-20T04:21:08.362Z,100881.80
2023-04-20T04:23:39.670Z,100884.08
2023-04-20T04:26:08.373Z,100881.63
2023-04-20T04:28:36.725Z,100880.41
2023-04-20T04:31:06.208Z,100878.39
2023-04-20T04:33:34.864Z,100875.00
2023-04-20T04:36:03.630Z,100878.02
2023-04-20T04:38:33.541Z,100878.74
2023-04-20T04:41:01.609Z,100870.40
2023-04-20T04:43:30.821Z,100872.41
2023-04-20T04:45:59.535Z,100877.65
2023-04-20T04:48:28.069Z,100883.08
2023-04-20T04:50:56.434Z,100887.43
2023-04-20T04:53:24.676Z,100884.15
2023-04-20T04:55:52.894Z,100883.91
2023-04-20T04:58:21.169Z,100889.54
2023-04-20T05:00:49.591Z,100895.56
2023-04-20T05:03:18.004Z,100900.33
2023-04-20T05:05:46.651Z,100904.44
2023-04-20T05:08:14.866Z,100904.31
2023-04-20T05:10:43.112Z,100908.93
2023-04-20T05:13:11.492Z,100907.36
2023-04-20T05:15:40.610Z,100909.54
2023-04-20T05:18:09.918Z,100908.11
2023-04-20T05:20:38.490Z,100906.39
2023-04-20T05:23:06.785Z,100907.23
2023-04-20T05:25:35.378Z,100914.77
2023-04-20T05:28:03.752Z,100916.10
2023-04-20T05:30:32.012Z,100920.91
2023-04-20T05:33:00.260Z,100917.38
2023-04-20T05:35:28.553Z,100918.73
2023-04-20T05:37:57.410Z,100920.42
2023-04-20T05:40:25.866Z,100924.73
2023-04-20T05:42:54.636Z,100922.27
2023-04-20T05:45:22.910Z,100924.45
2023-04-20T05:47:55.785Z,100930.48
2023-04-20T05:50:25.388Z,100933.57
2023-04-20T05:52:54.292Z,100931.23
2023-04-20T05:55:23.121Z,100933.60
2023-04-20T05:57:52.456Z,100937.86
2023-04-20T06:00:23.759Z,100934.76
2023-04-20T06:02:55.044Z,100929.55
2023-04-20T06:05:23.431Z,100933.11
2023-04-20T06:07:51.765Z,100930.91
2023-04-20T06:10:20.331Z,100933.80
2023-04-20T06:12:48.632Z,100931.64
2023-04-20T06:15:16.920Z,100929.77
2023-04-20T06:17:45.272Z,100925.34
2023-04-20T06:20:14.125Z,100924.38
2023-04-20T06:22:47.238Z,100924.46
2023-04-20T06:25:16.109Z,100927.92
2023-04-20T06:27:44.543Z,100924.38
2023-04-20T06:30:13.257Z,100921.71
2023-04-20T06:32:41.647Z,100922.57
2023-04-20T06:35:10.152Z,100920.86
2023-04-20T06:37:38.968Z,100929.23
2023-04-20T06:40:10.808Z,100918.79
2023-04-20T06:42:39.069Z,100917.56
2023-04-20T06:45:08.088Z,100919.84
2023-04-20T06:47:37.148Z,100922.89
2023-04-20T06:50:10.022Z,100934.34
2023-04-20T06:52:40.650Z,100939.71
2023-04-20T06:55:10.414Z,100951.70
2023-04-20T06:57:39.687Z,100952.70
2023-04-20T07:00:10.144Z,100954.02
2023-04-20T07:02:46.505Z,100952.95
2023-04-20T07:05:16.005Z,100955.98
2023-04-20T07:07:44.820Z,100952.18
2023-04-20T07:10:15.390Z,100952.77
2023-04-20T07:12:44.110Z,100953.16
2023-04-20T07:15:13.410Z,100948.27
2023-04-20T07:17:41.673Z,100946.70
2023-04-20T07:20:10.353Z,100942.86
2023-04-20T07:22:39.421Z,100938.82
2023-04-20T07:25:09.385Z,100932.16
2023-04-20T07:27:38.694Z,100932.73
2023-04-20T07:30:09.129Z,100930.63
2023-04-20T07:32:39.065Z,100934.73
2023-04-20T07:35:20.954Z,100930.42
2023-04-20T07:37:50.042Z,100933.95
2023-04-20T07:40:18.417Z,100935.84
2023-04-20T07:42:46.678Z,100931.09
2023-04-20T07:45:15.023Z,100927.34
2023-04-20T07:47:47.615Z,100929.41
2023-04-20T07:50:16.123Z,100929.50
2023-04-20T07:52:44.657Z,100927.10
2023-04-20T07:55:14.496Z,100932.11
2023-04-20T07:57:42.733Z,100929.20
2023-04-20T08:00:12.693Z,100928.73
2023-04-20T08:02:41.273Z,100931.98
2023-04-20T08:05:13.169Z,100936.64
2023-04-20T08:07:41.718Z,100941.81
2023-04-20T08:10:10.632Z,100939.98
2023-04-20T08:12:40.420Z,100936.91
2023-04-20T08:15:09.078Z,100939.27
2023-04-20T08:17:37.373Z,100943.00
2023-04-20T08:20:06.544Z,100942.52
2023-04-20T08:22:34.829Z,100939.58
2023-04-20T08:25:03.207Z,100942.81
2023-04-20T08:27:32.216Z,100944.26
2023-04-20T08:30:00.956Z,100943.05
2023-04-20T08:32:29.292Z,100945.91
2023-04-20T08:34:57.546Z,100947.69
2023-04-20T08:37:26.143Z,100948.77
2023-04-20T08:39:54.378Z,100951.10
2023-04-20T08:42:23.059Z,100947.79
2023-04-20T08:44:53.555Z,100950.99
2023-04-20T08:47:22.116Z,100951.54
2023-04-20T08:49:54.895Z,100945.05
2023-04-20T08:52:23.330Z,100947.36
2023-04-20T08:54:56.595Z,100943.35
2023-04-20T08:57:26.896Z,100947.63
2023-04-20T08:59:56.860Z,100945.88
2023-04-20T09:02:25.204Z,100946.43
2023-04-20T09:05:07.079Z,100941.52
2023-04-20T09:07:35.360Z,100943.27
2023-04-20T09:10:03.746Z,100935.36
2023-04-20T09:12:42.441Z,100933.95
2023-04-20T09:15:11.552Z,100932.35
2023-04-20T09:17:41.499Z,100936.21
2023-04-20T09:20:11.559Z,100937.42
2023-04-20T09:22:41.418Z,100937.41
2023-04-20T09:25:17.012Z,100932.64
2023-04-20T09:27:58.354Z,100932.27
2023-04-20T09:30:41.018Z,100934.19
2023-04-20T09:33:12.512Z,100934.52
2023-04-20T09:35:45.410Z,100935.71
2023-04-20T09:38:25.632Z,100936.02
2023-04-20T09:40:54.383Z,100938.94
2023-04-20T09:43:24.769Z,100936.95
2023-04-20T09:45:54.447Z,100936.38
2023-04-20T09:48:22.884Z,100936.63
2023-04-20T09:50:51.889Z,100935.65
2023-04-20T09:53:20.813Z,100934.67
2023-04-20T09:55:51.416Z,100932.64
2023-04-20T09:58:21.925Z,100927.09
2023-04-20T10:00:51.146Z,100926.81
2023-04-20T10:03:20.512Z,100932.59
2023-04-20T10:05:50.154Z,100931.40
2023-04-20T10:08:20.673Z,100929.30
2023-04-20T10:10:51.071Z,100929.33
2023-04-20T10:13:20.768Z,100932.52
2023-04-20T10:15:49.165Z,100932.31
2023-04-20T10:18:20.135Z,100929.24
2023-04-20T10:20:49.465Z,100929.14
2023-04-20T10:23:20.271Z,100931.85
2023-04-20T10:25:57.207Z,100931.89
2023-04-20T10:28:25.528Z,100935.73
2023-04-20T10:30:54.304Z,100932.01
2023-04-20T10:33:23.177Z,100931.33
2023-04-20T10:35:55.245Z,100928.56
2023-04-20T10:38:36.877Z,100930.55
2023-04-20T10:41:09.421Z,100925.99
2023-04-20T10:43:46.590Z,100921.60
2023-04-20T10:46:19.504Z,100921.01
2023-04-20T10:48:58.058Z,100923.21
2023-04-20T10:51:26.349Z,100920.57
2023-04-20T10:54:05.433Z,100919.54
2023-04-20T10:56:41.429Z,100914.33
2023-04-20T10:59:12.020Z,100914.89
2023-04-20T11:01:41.489Z,100912.86
2023-04-20T11:04:11.000Z,100917.19
2023-04-20T11:06:44.608Z,100917.52
2023-04-20T11:09:25.037Z,100911.88
2023-04-20T11:11:59.738Z,100907.81
2023-04-20T11:14:29.031Z,100908.84
2023-04-20T11:16:57.299Z,100907.88
2023-04-20T11:19:32.471Z,100909.64
2023-04-20T11:22:02.649Z,100915.63
2023-04-20T11:24:34.119Z,100918.58
2023-04-20T11:27:04.901Z,100914.63
2023-04-20T11:29:38.919Z,100917.73
2023-04-20T11:32:10.444Z,100920.52
2023-04-20T11:34:40.077Z,100914.08
2023-04-20T11:37:09.821Z,100912.02
2023-04-20T11:39:38.633Z,100910.74
2023-04-20T11:42:07.196Z,100910.01
2023-04-20T11:44:37.380Z,100910.02
2023-04-20T11:47:06.343Z,100908.67
2023-04-20T11:49:34.701Z,100904.13
2023-04-20T11:52:03.557Z,100907.92
2023-04-20T11:54:34.334Z,100907.67
2023-04-20T11:57:02.889Z,100911.69
2023-04-20T11:59:31.239Z,100912.68
2023-04-20T12:02:03.033Z,100912.77
2023-04-20T12:04:33.438Z,100908.13
2023-04-20T12:07:03.239Z,100915.13
2023-04-20T12:09:36.230Z,100913.07
2023-04-20T12:12:06.347Z,100915.23
2023-04-20T12:14:35.180Z,100916.47
2023-04-20T12:17:04.919Z,100913.09
2023-04-20T12:19:33.076Z,100907.70
2023-04-20T12:22:01.590Z,100911.72
2023-04-20T12:24:30.033Z,100907.94
2023-04-20T12:26:59.606Z,100905.31
2023-04-20T12:29:28.477Z,100905.28
2023-04-20T12:31:57.106Z,100896.41
2023-04-20T12:34:25.601Z,100900.02
2023-04-20T12:36:54.028Z,100895.05
2023-04-20T12:39:22.649Z,100900.55
2023-04-20T12:41:51.754Z,100896.46
2023-04-20T12:44:21.123Z,100902.14
2023-04-20T12:46:49.658Z,100892.77
2023-04-20T12:49:18.254Z,100890.59
2023-04-20T12:51:46.959Z,100886.76
2023-04-20T12:54:15.290Z,100885.41
2023-04-20T12:56:43.674Z,100886.15
2023-04-20T12:59:12.180Z,100881.20
2023-04-20T13:01:40.638Z,100879.54
2023-04-20T13:04:09.251Z,100885.30
2023-04-20T13:06:37.883Z,100884.02
2023-04-20T13:09:06.324Z,100881.16
2023-04-20T13:11:34.599Z,100884.08
2023-04-20T13:14:33.214Z,100879.64
2023-04-20T13:22:57.693Z,100873.12
2023-04-20T13:26:28.275Z,100875.98
2023-04-20T13:30:04.202Z,100871.35
2023-04-20T13:33:30.272Z,100873.34
2023-04-20T13:36:45.222Z,100872.25
2023-04-20T13:40:41.748Z,100869.33
2023-04-20T13:44:17.500Z,100865.45
2023-04-20T13:47:59.989Z,100864.69
2023-04-20T13:51:29.754Z,100860.52
2023-04-20T13:55:54.599Z,100858.24
2023-04-20T14:00:09.621Z,100863.36
2023-04-20T14:04:22.158Z,100866.90
2023-04-20T14:08:13.583Z,100869.31
2023-04-20T14:12:07.234Z,100872.73
2023-04-20T14:15:52.187Z,100868.03
2023-04-20T14:19:40.620Z,100862.94
2023-04-20T14:23:29.992Z,100852.63
2023-04-20T14:27:17.208Z,100850.14
2023-04-20T14:31:17.268Z,100846.53
2023-04-20T14:35:00.207Z,100848.73
2023-04-20T14:38:31.320Z,100853.05
2023-04-20T14:42:06.295Z,100854.37
2023-04-20T14:45:04.804Z,100847.84
2023-04-20T14:47:33.476Z,100847.42
2023-04-20T14:50:02.064Z,100845.60
2023-04-20T14:52:30.444Z,100845.83
2023-04-20T14:54:58.915Z,100847.42
2023-04-20T14:57:27.277Z,100847.60
2023-04-20T14:59:55.946Z,100843.56
2023-04-20T15:02:24.441Z,100842.69
2023-04-20T15:04:53.105Z,100842.35
2023-04-20T15:07:21.716Z,100841.70
2023-04-20T15:09:50.084Z,100843.55
2023-04-20T15:12:18.478Z,100847.88
2023-04-20T15:14:46.756Z,100845.12
2023-04-20T15:17:15.351Z,100843.89
2023-04-20T15:19:46.330Z,100846.57
2023-04-20T15:22:15.188Z,100843.75
2023-04-20T15:24:43.647Z,100841.63
2023-04-20T15:27:12.043Z,100846.45
2023-04-20T15:29:41.192Z,100847.57
2023-04-20T15:32:09.803Z,100844.80
2023-04-20T15:34:38.465Z,100841.45
2023-04-20T15:37:06.938Z,100837.15
2023-04-20T15:39:36.446Z,100836.38
2023-04-20T15:42:05.269Z,100838.11
2023-04-20T15:44:34.125Z,100833.46
2023-04-20T15:47:02.552Z,100838.19
2023-04-20T15:49:30.897Z,100833.05
2023-04-20T15:51:59.561Z,100838.55
2023-04-20T15:54:27.961Z,100841.95
2023-04-20T15:56:57.070Z,100838.53
2023-04-20T15:59:25.763Z,100840.14
2023-04-20T16:01:54.156Z,100842.96
2023-04-20T16:04:23.673Z,100844.77
2023-04-20T16:06:52.638Z,100840.86
2023-04-20T16:09:23.054Z,100843.87
2023-04-20T16:11:52.194Z,100838.73
2023-04-20T16:14:20.902Z,100842.08
2023-04-20T16:16:49.589Z,100848.08
2023-04-20T16:19:17.870Z,100844.68
2023-04-20T16:21:46.190Z,100845.48
2023-04-20T16:24:14.534Z,100842.89
2023-04-20T16:26:43.002Z,100843.86
2023-04-20T16:29:11.529Z,100844.45
2023-04-20T16:31:41.266Z,100847.36
2023-04-20T16:34:09.489Z,100849.72
2023-04-20T16:36:37.735Z,100845.73
2023-04-20T16:39:06.931Z,100849.30
2023-04-20T16:41:35.416Z,100844.38
2023-04-20T16:44:05.441Z,100848.31
2023-04-20T16:46:33.901Z,100847.63
2023-04-20T16:49:02.528Z,100846.45
2023-04-20T16:51:30.851Z,100847.02
2023-04-20T16:54:01.664Z,100846.67
2023-04-20T16:56:29.997Z,100844.58
2023-04-20T16:58:58.621Z,100847.45
2023-04-20T17:01:27.080Z,100848.76
2023-04-20T17:03:55.658Z,100850.59
2023-04-20T17:06:53.812Z,100849.42
2023-04-20T17:09:24.515Z,100855.51
2023-04-20T17:11:53.651Z,100857.71
2023-04-20T18:11:20.084Z,100908.31
2023-04-20T18:13:48.938Z,100911.48
2023-04-20T18:16:19.892Z,100918.37
2023-04-20T18:18:51.815Z,100920.51
2023-04-20T18:21:20.375Z,100922.13
2023-04-20T18:23:49.015Z,100919.15
2023-04-20T18:26:17.884Z,100921.27
2023-04-20T18:28:46.839Z,100929.20
2023-04-20T18:31:15.342Z,100934.99
2023-04-20T18:33:43.699Z,100935.71
2023-04-20T18:36:12.019Z,100938.35
2023-04-20T18:38:42.627Z,100942.91
2023-04-20T18:41:11.080Z,100945.02
2023-04-20T18:43:39.812Z,100948.55
2023-04-20T18:46:08.640Z,100949.25
2023-04-20T18:48:37.091Z,100950.12
2023-04-20T18:51:05.862Z,100952.40
2023-04-20T18:53:34.721Z,100948.89
2023-04-20T18:56:03.394Z,100953.81
2023-04-20T18:58:31.912Z,100953.98
2023-04-20T19:01:03.709Z,100957.70
2023-04-20T19:03:32.434Z,100958.22
2023-04-20T19:06:01.082Z,100957.86
2023-04-20T19:08:29.458Z,100963.31
2023-04-20T19:10:59.208Z,100964.01
2023-04-20T19:13:27.605Z,100967.01
2023-04-20T19:15:59.485Z,100969.45
2023-04-20T19:18:27.897Z,100970.50
2023-04-20T19:20:58.572Z,100966.62
2023-04-20T19:23:26.873Z,100971.20
2023-04-20T19:26:20.049Z,100968.88
2023-04-20T19:28:48.634Z,100972.74
2023-04-20T19:31:17.059Z,100972.16
2023-04-20T19:33:45.488Z,100977.61
2023-04-20T19:36:13.953Z,100981.98
2023-04-20T19:38:42.372Z,100984.26
2023-04-20T19:41:10.977Z,100983.20
2023-04-20T19:43:39.474Z,100984.23
2023-04-20T19:46:09.940Z,100985.63
2023-04-20T19:48:38.435Z,100987.72
2023-04-20T19:51:06.989Z,100989.10
2023-04-20T19:53:36.722Z,100987.32
2023-04-20T19:56:06.731Z,100990.13
2023-04-20T19:58:35.274Z,100990.63
2023-04-20T20:01:05.838Z,100988.31
2023-04-20T20:03:34.622Z,100987.73
2023-04-20T20:06:03.949Z,100993.33
2023-04-20T20:08:32.184Z,100996.83
2023-04-20T20:11:00.857Z,100999.27
2023-04-20T20:13:29.164Z,100998.88
2023-04-20T20:15:59.051Z,100998.33
2023-04-20T20:18:27.579Z,101005.13
2023-04-20T20:20:57.068Z,100999.13
2023-04-20T20:23:25.513Z,100998.58
2023-04-20T20:25:54.323Z,101006.08
2023-04-20T20:28:29.610Z,101003.90
2023-04-20T20:30:58.778Z,101003.30
2023-04-20T20:33:29.981Z,101008.64
2023-04-20T20:35:58.566Z,101005.58
2023-04-20T20:38:27.052Z,101006.73
2023-04-20T20:40:57.986Z,101010.36
2023-04-20T20:43:26.629Z,101013.63
2023-04-20T20:45:55.245Z,101014.62
2023-04-20T20:48:23.573Z,101014.70
2023-04-20T20:50:52.094Z,101013.23
2023-04-20T20:53:20.936Z,101015.80
2023-04-20T20:55:49.138Z,101011.67
2023-04-20T20:58:17.476Z,101012.64
2023-04-20T21:00:47.305Z,101007.81
2023-04-20T21:03:15.746Z,101009.14
2023-04-20T21:05:44.290Z,101004.96
2023-04-20T21:08:13.120Z,101008.95
2023-04-20T21:10:42.640Z,101006.50
2023-04-20T21:13:13.913Z,101010.55
2023-04-20T21:15:42.295Z,101007.20
2023-04-20T21:18:11.095Z,101011.23
2023-04-20T21:20:39.604Z,101013.86
2023-04-20T21:23:08.397Z,101014.02
2023-04-20T21:25:36.767Z,101013.82
2023-04-20T21:28:05.335Z,101013.61
2023-04-20T21:30:34.471Z,101011.48
2023-04-20T21:33:02.815Z,101010.77
2023-04-20T21:35:31.336Z,101011.79
2023-04-20T21:37:59.719Z,101010.53
2023-04-20T21:40:28.142Z,101009.98
2023-04-20T21:42:56.586Z,101011.73
2023-04-20T21:45:24.988Z,101008.74
2023-04-20T21:47:55.552Z,101011.86
2023-04-20T21:50:27.855Z,101012.52
2023-04-20T21:52:56.435Z,101011.04
2023-04-20T21:55:24.911Z,101014.83
2023-04-20T21:57:53.276Z,101011.95
2023-04-20T22:00:22.005Z,101010.48
2023-04-20T22:02:50.701Z,101006.42
2023-04-20T22:05:19.508Z,101010.94
2023-04-20T22:07:47.960Z,101011.59
2023-04-20T22:10:16.341Z,101009.27
2023-04-20T22:12:45.590Z,101010.45
2023-04-20T22:15:15.207Z,101014.41
2023-04-20T22:17:47.055Z,101013.48
2023-04-20T22:20:16.890Z,101016.05
2023-04-20T22:22:45.930Z,101017.04
2023-04-20T22:25:14.375Z,101016.84
2023-04-20T22:27:44.155Z,101017.15
2023-04-20T22:30:12.845Z,101018.87
2023-04-20T22:32:41.287Z,101016.39
2023-04-20T22:35:10.893Z,101014.44
2023-04-20T22:37:39.247Z,101012.32
2023-04-20T22:40:08.712Z,101016.33
2023-04-20T22:42:37.254Z,101015.94
2023-04-20T22:45:06.246Z,101015.86
2023-04-20T22:47:34.554Z,101016.20
2023-04-20T22:50:03.448Z,101017.92
2023-04-20T22:52:32.540Z,101017.56
2023-04-20T22:55:00.809Z,101021.00
2023-04-20T22:57:29.194Z,101023.60
2023-04-20T22:59:57.543Z,101020.95
2023-04-20T23:02:25.969Z,101026.20
2023-04-20T23:04:54.293Z,101024.73
2023-04-20T23:07:22.587Z,101026.40
2023-04-20T23:09:51.158Z,101022.46
2023-04-20T23:12:20.847Z,101026.55
2023-04-20T23:14:50.929Z,101020.89
2023-04-20T23:17:19.170Z,101018.89
2023-04-20T23:19:47.581Z,101015.34
2023-04-20T23:22:15.975Z,101015.63
2023-04-20T23:24:44.282Z,101013.64
2023-04-20T23:27:12.475Z,101009.67
2023-04-20T23:29:41.606Z,101012.21
2023-04-20T23:32:10.182Z,101009.19
2023-04-20T23:34:38.624Z,101012.10
2023-04-20T23:37:06.888Z,101007.17
2023-04-20T23:39:38.387Z,101009.40
2023-04-20T23:42:06.699Z,101007.73
2023-04-20T23:44:35.488Z,101008.86
2023-04-20T23:47:03.714Z,101010.34
2023-04-20T23:49:32.006Z,101008.85
2023-04-20T23:52:00.189Z,101007.95
2023-04-20T23:54:29.244Z,101005.80
2023-04-20T23:56:57.819Z,101009.07
2023-04-20T23:59:26.375Z,101007.40
